ADDS METAR Data INFO
IDs: Format: Raw Decoded Include TAF

Data at: 0313 UTC 22 Apr 2018

KF00 220255Z AUTO 32009G17KT 2SM RA BR OVC004 12/12 A3000 RMK AO2 T01200115
KF00 220235Z AUTO 32005KT 3SM BR OVC004 14/13 A3000 RMK AO2 T01370134
KF00 220215Z AUTO 02003KT 5SM BR OVC004 14/13 A2999 RMK AO2 T01370134
KF00 220155Z AUTO 01006KT 5SM BR OVC004 14/14 A2996 RMK AO2 T01380135
KF00 220135Z AUTO 01004KT 7SM OVC004 14/14 A2996 RMK AO2 LTG DSNT SE T01390136
KF00 220115Z AUTO 09006KT 7SM OVC004 14/14 A2996 RMK AO2 T01400137
KF00 220055Z AUTO 09006KT 7SM -RA BR OVC006 14/14 A2994 RMK AO2 LTG DSNT SE T01400136
KF00 220035Z AUTO 13003KT 10SM OVC006 14/14 A2997 RMK AO2 T01400136
KF00 220015Z AUTO 12008KT 10SM OVC006 14/14 A2996 RMK AO2 T01400135
KF00 212355Z AUTO 10007KT 7SM BR OVC006 14/14 A2996 RMK AO2 T01400136 10141 20123 60031
KF00 212335Z AUTO 12008KT 7SM BR OVC006 14/14 A2996 RMK AO2 T01390136
KF00 212315Z AUTO 10007KT 5SM BR OVC006 14/14 A2996 RMK AO2 LTG DSNT SW T01400136
KF00 212255Z AUTO 11007KT 5SM BR OVC004 14/14 A2997 RMK AO2 T01400136
KF00 212235Z AUTO 10007KT 7SM OVC004 14/14 A2996 RMK AO2 LTG DSNT S T01400135
KF00 212215Z AUTO 10005KT 7SM BR OVC004 14/13 A2996 RMK AO2 LTG DSNT SE T01400135
KF00 212155Z AUTO 10004KT 10SM -DZ OVC004 14/13 A2996 RMK AO2 P0001 T01390133
KF00 212135Z AUTO 09008KT 7SM OVC004 14/13 A2994 RMK AO2 P0001 T01390134
KF00 212115Z AUTO 10006KT 7SM OVC004 14/13 A2994 RMK AO2 P0001 T01360132
KF00 212055Z AUTO 11008KT 7SM -RA BR BKN004 OVC009 13/13 A2994 RMK AO2 P0003 T01340131 60030
KF00 212035Z AUTO 10008KT 4SM RA BR BKN004 OVC008 13/13 A2995 RMK AO2 P0003 T01320130
KF00 212015Z AUTO 09007KT 1 3/4SM -RA BR OVC004 13/13 A2996 RMK AO2 P0002 T01290127
KF00 211955Z AUTO 09008KT 2SM -RA BR OVC004 13/13 A2997 RMK AO2 LTG DSNT SE P0008 T01280125
KF00 211935Z AUTO 08007KT 1 1/2SM RA BR OVC004 13/12 A2998 RMK AO2 P0006 T01270124
KF00 211915Z AUTO 08007KT 1 1/2SM -RA BR OVC004 12/12 A2999 RMK AO2 LTG DSNT E THRU S P0003 T01240120
KF00 211855Z AUTO 06006KT 1 1/2SM RA BR BKN004 OVC012 12/12 A3000 RMK AO2 LTG DSNT SE AND S P0019 T01240121
KF00 211835Z AUTO 05004KT 3SM -RA BR SCT006 BKN030 OVC039 12/12 A3000 RMK AO2 LTG DSNT E AND S P0016 T01240120
KF00 211815Z AUTO 07004KT 1 3/4SM -RA BR BKN027 BKN033 OVC041 12/12 A3001 RMK AO2 LTG DSNT E THRU S P0008 T01240118
KF00 211755Z AUTO 05004KT 4SM VCTSRA BR BKN034 BKN042 OVC048 12/12 A3000 RMK AO2 LTG DSNT NE THRU S P0021 T01240116 10160 20106 60021
KF00 211735Z AUTO 06006KT 5SM TSRA BR BKN036 OVC055 12/11 A3000 RMK AO2 LTG DSNT N THRU S P0018 T01230113
KF00 211715Z AUTO 30010KT 7SM +TSRA OVC036 13/11 A3004 RMK AO2 LTG DSNT S THRU N P0006 T01310108
KF00 211655Z AUTO 12004KT 10SM VCTS OVC034 16/09 A2999 RMK AO2 LTG DSNT ALQDS T01590086
KF00 211635Z AUTO 12014KT 10SM VCTS BKN037 BKN045 OVC060 16/08 A2997 RMK AO2 LTG DSNT SW THRU NW T01600083
KF00 211615Z AUTO 13009G15KT 10SM VCTS SCT044 OVC060 16/09 A2998 RMK AO2 LTG DSNT W THRU N T01600086
KF00 211555Z AUTO 13014KT 10SM OVC060 16/08 A2998 RMK AO2 LTG DSNT W AND NW T01580084
KF00 211535Z AUTO 12013G21KT 10SM OVC060 16/08 A2998 RMK AO2 LTG DSNT W T01560082
KF00 211515Z AUTO 12013G21KT 10SM OVC060 15/08 A2999 RMK AO2 LTG DSNT W T01540079
KF00 211455Z AUTO 13014G17KT 10SM BKN060 OVC070 15/08 A3000 RMK AO2 LTG DSNT W T01540077
KF00 211435Z AUTO 13017G25KT 10SM VCTS OVC070 15/07 A3001 RMK AO2 LTG DSNT NW T01510069
KF00 211415Z AUTO 12018G23KT 10SM OVC070 15/07 A3001 RMK AO2 LTG DSNT N AND W T01530069
KF00 211355Z AUTO 13014G17KT 10SM VCTS SCT070 14/07 A3003 RMK AO2 T01450071
KF00 211335Z AUTO 12014KT 10SM CLR 13/07 A3003 RMK AO2 LTG DSNT NW T01300071
KF00 211315Z AUTO 12011KT 10SM CLR 12/07 A3004 RMK AO2 LTG DSNT NW T01210069
KF00 211255Z AUTO 14011KT 10SM CLR 12/07 A3005 RMK AO2 T01160065
KF00 211235Z AUTO 12010KT 10SM CLR 11/06 A3004 RMK AO2 T01130064
KF00 211215Z AUTO 13013KT 10SM CLR 11/06 A3004 RMK AO2 LTG DSNT NW T01080061
KF00 211155Z AUTO 12012KT 10SM CLR 11/06 A3004 RMK AO2 T01070061 10125 20107
KF00 211135Z AUTO 12012KT 10SM BKN060 11/06 A3005 RMK AO2 LTG DSNT W T01110062
KF00 211115Z AUTO 12010KT 10SM OVC060 11/06 A3006 RMK AO2 T01140062
KF00 211055Z AUTO 12011KT 10SM OVC050 11/06 A3007 RMK AO2 LTG DSNT W T01150061
KF00 211035Z AUTO 12010KT 10SM OVC050 12/06 A3008 RMK AO2 T01170061
KF00 211015Z AUTO 12009KT 10SM OVC050 12/06 A3009 RMK AO2 T01180060
KF00 210955Z AUTO 12007KT 10SM OVC050 12/06 A3009 RMK AO2 T01180060
KF00 210935Z AUTO 12007KT 10SM OVC050 11/06 A3009 RMK AO2 T01140063
KF00 210915Z AUTO 11007KT 10SM OVC050 11/07 A3010 RMK AO2 T01130066
KF00 210855Z AUTO 11006KT 10SM OVC055 11/07 A3010 RMK AO2 T01130068
KF00 210835Z AUTO 11005KT 10SM OVC055 11/07 A3010 RMK AO2 T01100066
KF00 210815Z AUTO 10006KT 10SM BKN055 11/07 A3011 RMK AO2 T01110066
KF00 210755Z AUTO 10006KT 10SM CLR 11/07 A3011 RMK AO2 T01130067
KF00 210735Z AUTO 11005KT 10SM CLR 12/07 A3012 RMK AO2 T01170066
KF00 210715Z AUTO 12005KT 10SM CLR 12/06 A3011 RMK AO2 T01200065
KF00 210655Z AUTO 13007KT 10SM CLR 12/06 A3011 RMK AO2 T01230062
KF00 210635Z AUTO 13009KT 10SM CLR 12/06 A3011 RMK AO2 T01240062
KF00 210615Z AUTO 13009KT 10SM CLR 12/06 A3012 RMK AO2 LTG DSNT N T01240061
KF00 210555Z AUTO 12007KT 10SM CLR 12/06 A3012 RMK AO2 LTG DSNT N T01230061 10176 20119 401890065
KF00 210535Z AUTO 12006KT 10SM CLR 12/06 A3012 RMK AO2 T01200062
KF00 210515Z AUTO 12006KT 10SM CLR 12/06 A3013 RMK AO2 T01210060
KF00 210455Z AUTO 12006KT 10SM CLR 12/06 A3013 RMK AO2 T01220057
KF00 210435Z AUTO 13006KT 10SM CLR 12/06 A3013 RMK AO2 T01250056
KF00 210415Z AUTO 13006KT 10SM CLR 13/06 A3013 RMK AO2 T01280056
KF00 210355Z AUTO 13007KT 10SM CLR 13/05 A3013 RMK AO2 T01320055
KF00 210335Z AUTO 13007KT 10SM CLR 13/05 A3012 RMK AO2 T01340054
KF00 210315Z AUTO 13010KT 10SM CLR 13/05 A3010 RMK AO2 T01340054
KF00 210255Z AUTO 12010KT 10SM CLR 13/06 A3009 RMK AO2 T01340055
KF00 210235Z AUTO 13008KT 10SM CLR 14/06 A3010 RMK AO2 T01350056
KF00 210215Z AUTO 14006KT 10SM CLR 14/06 A3010 RMK AO2 LTG DSNT NW T01370057
KF00 210155Z AUTO 12008KT 10SM CLR 14/06 A3010 RMK AO2 T01410057
KF00 210135Z AUTO 12007KT 10SM CLR 14/06 A3010 RMK AO2 T01450056
KF00 210115Z AUTO 12009KT 10SM CLR 15/05 A3010 RMK AO2 T01520053
KF00 210055Z AUTO 13009KT 10SM CLR 16/05 A3011 RMK AO2 T01590050
KF00 210035Z AUTO 12011G18KT 10SM CLR 17/05 A3010 RMK AO2 T01670049
KF00 210015Z AUTO 12014KT 10SM CLR 17/05 A3010 RMK AO2 T01710048
KF00 202355Z AUTO 12013G18KT 10SM CLR 18/05 A3011 RMK AO2 T01760053 10189 20149
KF00 202335Z AUTO 12010KT 10SM CLR 18/05 A3011 RMK AO2 T01800053
KF00 202320Z AUTO 12018KT 10SM CLR 18/05 A3011 RMK AO2 LTG DSNT NW T01810050
KF00 202255Z AUTO 11013KT 10SM CLR 18/05 A3012 RMK AO2 T01820048
KF00 202235Z AUTO 11013KT 10SM CLR 18/05 A3012 RMK AO2 T01830047
KF00 202215Z AUTO 11015KT 10SM CLR 19/05 A3011 RMK AO2 T01860047
KF00 202155Z AUTO 11016G20KT 10SM CLR 18/05 A3013 RMK AO2 T01840047
KF00 202135Z AUTO 12014G20KT 10SM CLR 18/05 A3014 RMK AO2 T01840048
KF00 202115Z AUTO 11014KT 10SM CLR 18/05 A3015 RMK AO2 T01830048
KF00 202055Z AUTO 11015G19KT 10SM CLR 18/05 A3017 RMK AO2 LTG DSNT NW T01800045
KF00 202035Z AUTO 12014KT 10SM CLR 18/04 A3018 RMK AO2 LTG DSNT NW T01790043
KF00 202015Z AUTO 11012G17KT 10SM CLR 18/05 A3019 RMK AO2 T01810048
KF00 201955Z AUTO 12014KT 10SM CLR 17/04 A3020 RMK AO2 T01710041
KF00 201935Z AUTO 12014KT 10SM CLR 16/04 A3022 RMK AO2 T01650037
KF00 201915Z AUTO 12013G17KT 10SM CLR 16/03 A3023 RMK AO2 T01600035
KF00 201855Z AUTO 12014G18KT 10SM CLR 16/03 A3025 RMK AO2 T01590035
KF00 201835Z AUTO 11014G19KT 10SM CLR 15/03 A3026 RMK AO2 T01510032
KF00 201815Z AUTO 11009KT 10SM CLR 16/03 A3027 RMK AO2 T01560034
KF00 201755Z AUTO 10010G17KT 10SM CLR 15/03 A3029 RMK AO2 T01510031 10153 20065
KF00 201735Z AUTO 12011KT 10SM CLR 14/03 A3030 RMK AO2 T01440026
KF00 201715Z AUTO 10009G19KT 10SM CLR 14/03 A3030 RMK AO2 T01430029
KF00 201655Z AUTO 09011G15KT 10SM CLR 14/03 A3032 RMK AO2 T01390030
KF00 201635Z AUTO 10013KT 10SM CLR 14/02 A3033 RMK AO2 LTG DSNT NW T01350021
KF00 201615Z AUTO 12012G15KT 10SM CLR 13/02 A3033 RMK AO2 T01280021
KF00 201555Z AUTO 11012G17KT 10SM CLR 13/02 A3033 RMK AO2 T01270018
KF00 201535Z AUTO 11015G21KT 10SM CLR 12/02 A3034 RMK AO2 T01190016
KF00 201515Z AUTO 11014KT 10SM CLR 12/02 A3034 RMK AO2 T01200022